sensor_id;sensor_type;location;lat;lon;timestamp;pressure;altitude;pressure_sealevel;temperature
15062;BMP180;7630;50.306;8.566;2022-11-11T01:02:37;99223.00;;;8.50
15062;BMP180;7630;50.306;8.566;2022-11-11T01:06:38;99209.00;;;7.20
15062;BMP180;7630;50.306;8.566;2022-11-11T01:10:39;99208.00;;;7.90
15062;BMP180;7630;50.306;8.566;2022-11-11T01:14:44;99198.00;;;8.50
15062;BMP180;7630;50.306;8.566;2022-11-11T01:18:46;99193.00;;;8.80
15062;BMP180;7630;50.306;8.566;2022-11-11T01:22:47;99196.00;;;8.70
15062;BMP180;7630;50.306;8.566;2022-11-11T01:26:48;99196.00;;;8.00
15062;BMP180;7630;50.306;8.566;2022-11-11T01:30:49;99195.00;;;7.90
15062;BMP180;7630;50.306;8.566;2022-11-11T01:34:50;99206.00;;;7.40
15062;BMP180;7630;50.306;8.566;2022-11-11T01:38:54;99198.00;;;8.40
15062;BMP180;7630;50.306;8.566;2022-11-11T01:47:09;99199.00;;;8.80
15062;BMP180;7630;50.306;8.566;2022-11-11T01:51:14;99195.00;;;8.70
15062;BMP180;7630;50.306;8.566;2022-11-11T01:55:18;99188.00;;;8.40
15062;BMP180;7630;50.306;8.566;2022-11-11T01:59:20;99176.00;;;8.30
15062;BMP180;7630;50.306;8.566;2022-11-11T02:03:22;99203.00;;;8.30
15062;BMP180;7630;50.306;8.566;2022-11-11T02:07:25;99190.00;;;7.60
15062;BMP180;7630;50.306;8.566;2022-11-11T02:11:27;99178.00;;;7.70
15062;BMP180;7630;50.306;8.566;2022-11-11T02:15:48;99175.00;;;7.60
15062;BMP180;7630;50.306;8.566;2022-11-11T02:20:02;99188.00;;;8.20
15062;BMP180;7630;50.306;8.566;2022-11-11T02:24:11;99194.00;;;6.10
15062;BMP180;7630;50.306;8.566;2022-11-11T02:28:10;99204.00;;;6.20
15062;BMP180;7630;50.306;8.566;2022-11-11T02:32:13;99200.00;;;6.50
15062;BMP180;7630;50.306;8.566;2022-11-11T02:36:14;99210.00;;;8.00
15062;BMP180;7630;50.306;8.566;2022-11-11T02:40:19;99225.00;;;8.30
15062;BMP180;7630;50.306;8.566;2022-11-11T02:44:21;99230.00;;;8.20
15062;BMP180;7630;50.306;8.566;2022-11-11T02:48:23;99239.00;;;8.80
15062;BMP180;7630;50.306;8.566;2022-11-11T02:52:24;99238.00;;;8.70
15062;BMP180;7630;50.306;8.566;2022-11-11T02:56:26;99241.00;;;8.90
15062;BMP180;7630;50.306;8.566;2022-11-11T03:00:45;99246.00;;;8.70
15062;BMP180;7630;50.306;8.566;2022-11-11T03:04:48;99240.00;;;8.50
15062;BMP180;7630;50.306;8.566;2022-11-11T03:08:53;99241.00;;;8.10
15062;BMP180;7630;50.306;8.566;2022-11-11T03:12:55;99243.00;;;7.70
15062;BMP180;7630;50.306;8.566;2022-11-11T03:16:56;99251.00;;;7.90
15062;BMP180;7630;50.306;8.566;2022-11-11T03:21:16;99234.00;;;7.70
15062;BMP180;7630;50.306;8.566;2022-11-11T03:25:19;99245.00;;;7.70
15062;BMP180;7630;50.306;8.566;2022-11-11T03:29:38;99242.00;;;6.30
15062;BMP180;7630;50.306;8.566;2022-11-11T03:33:39;99242.00;;;6.00
15062;BMP180;7630;50.306;8.566;2022-11-11T03:37:40;99240.00;;;6.60
15062;BMP180;7630;50.306;8.566;2022-11-11T03:42:01;99242.00;;;7.00
15062;BMP180;7630;50.306;8.566;2022-11-11T03:46:03;99245.00;;;7.50
15062;BMP180;7630;50.306;8.566;2022-11-11T03:50:05;99252.00;;;8.20
15062;BMP180;7630;50.306;8.566;2022-11-11T03:54:06;99253.00;;;8.30
15062;BMP180;7630;50.306;8.566;2022-11-11T03:58:08;99255.00;;;8.10
15062;BMP180;7630;50.306;8.566;2022-11-11T04:02:11;99254.00;;;7.80
15062;BMP180;7630;50.306;8.566;2022-11-11T04:06:31;99255.00;;;8.00
15062;BMP180;7630;50.306;8.566;2022-11-11T04:10:54;99262.00;;;8.00
15062;BMP180;7630;50.306;8.566;2022-11-11T04:14:56;99261.00;;;7.90
15062;BMP180;7630;50.306;8.566;2022-11-11T04:19:15;99269.00;;;7.80
15062;BMP180;7630;50.306;8.566;2022-11-11T04:23:35;99248.00;;;7.60
15062;BMP180;7630;50.306;8.566;2022-11-11T04:27:36;99250.00;;;7.70
15062;BMP180;7630;50.306;8.566;2022-11-11T04:31:37;99247.00;;;7.70
15062;BMP180;7630;50.306;8.566;2022-11-11T04:35:47;99239.00;;;7.50
15062;BMP180;7630;50.306;8.566;2022-11-11T04:39:49;99236.00;;;7.40
15062;BMP180;7630;50.306;8.566;2022-11-11T04:44:10;99233.00;;;7.30
15062;BMP180;7630;50.306;8.566;2022-11-11T04:48:30;99235.00;;;7.50
15062;BMP180;7630;50.306;8.566;2022-11-11T04:52:31;99232.00;;;7.10
15062;BMP180;7630;50.306;8.566;2022-11-11T04:56:32;99224.00;;;7.60
15062;BMP180;7630;50.306;8.566;2022-11-11T05:00:50;99231.00;;;7.50
15062;BMP180;7630;50.306;8.566;2022-11-11T05:04:50;99231.00;;;7.90
15062;BMP180;7630;50.306;8.566;2022-11-11T05:08:52;99231.00;;;7.80
15062;BMP180;7630;50.306;8.566;2022-11-11T05:12:55;99233.00;;;7.40
15062;BMP180;7630;50.306;8.566;2022-11-11T05:16:58;99241.00;;;7.60
15062;BMP180;7630;50.306;8.566;2022-11-11T05:21:24;99238.00;;;7.00
15062;BMP180;7630;50.306;8.566;2022-11-11T05:25:26;99243.00;;;7.20
15062;BMP180;7630;50.306;8.566;2022-11-11T05:29:29;99241.00;;;7.20
15062;BMP180;7630;50.306;8.566;2022-11-11T05:33:30;99235.00;;;8.00
15062;BMP180;7630;50.306;8.566;2022-11-11T05:37:31;99239.00;;;8.10
15062;BMP180;7630;50.306;8.566;2022-11-11T05:41:32;99247.00;;;8.00
15062;BMP180;7630;50.306;8.566;2022-11-11T05:45:33;99257.00;;;7.40
15062;BMP180;7630;50.306;8.566;2022-11-11T05:49:35;99269.00;;;7.20
15062;BMP180;7630;50.306;8.566;2022-11-11T05:53:36;99269.00;;;7.30
15062;BMP180;7630;50.306;8.566;2022-11-11T05:57:37;99279.00;;;7.60
15062;BMP180;7630;50.306;8.566;2022-11-11T06:01:38;99287.00;;;7.90
15062;BMP180;7630;50.306;8.566;2022-11-11T06:05:40;99290.00;;;7.90
15062;BMP180;7630;50.306;8.566;2022-11-11T06:09:41;99296.00;;;7.50
15062;BMP180;7630;50.306;8.566;2022-11-11T06:13:42;99293.00;;;7.10
15062;BMP180;7630;50.306;8.566;2022-11-11T06:17:43;99295.00;;;7.30
15062;BMP180;7630;50.306;8.566;2022-11-11T06:21:45;99296.00;;;7.40
15062;BMP180;7630;50.306;8.566;2022-11-11T06:25:58;99292.00;;;7.30
15062;BMP180;7630;50.306;8.566;2022-11-11T06:30:14;99297.00;;;6.80
15062;BMP180;7630;50.306;8.566;2022-11-11T06:34:17;99299.00;;;5.30
15062;BMP180;7630;50.306;8.566;2022-11-11T06:38:19;99299.00;;;4.50
15062;BMP180;7630;50.306;8.566;2022-11-11T06:42:20;99314.00;;;5.20
15062;BMP180;7630;50.306;8.566;2022-11-11T06:46:23;99315.00;;;6.60
15062;BMP180;7630;50.306;8.566;2022-11-11T06:50:24;99310.00;;;7.50
15062;BMP180;7630;50.306;8.566;2022-11-11T06:54:26;99308.00;;;7.50
15062;BMP180;7630;50.306;8.566;2022-11-11T06:58:27;99312.00;;;7.60
15062;BMP180;7630;50.306;8.566;2022-11-11T07:02:29;99324.00;;;7.80
15062;BMP180;7630;50.306;8.566;2022-11-11T07:06:30;99319.00;;;7.90
15062;BMP180;7630;50.306;8.566;2022-11-11T07:10:33;99326.00;;;7.80
15062;BMP180;7630;50.306;8.566;2022-11-11T07:14:34;99327.00;;;7.90
15062;BMP180;7630;50.306;8.566;2022-11-11T07:18:35;99327.00;;;7.90
15062;BMP180;7630;50.306;8.566;2022-11-11T07:22:37;99327.00;;;8.00
15062;BMP180;7630;50.306;8.566;2022-11-11T07:26:38;99342.00;;;8.40
15062;BMP180;7630;50.306;8.566;2022-11-11T07:30:40;99346.00;;;8.40
15062;BMP180;7630;50.306;8.566;2022-11-11T07:34:42;99347.00;;;7.80
15062;BMP180;7630;50.306;8.566;2022-11-11T07:38:44;99358.00;;;8.80
15062;BMP180;7630;50.306;8.566;2022-11-11T07:42:46;99363.00;;;8.80
15062;BMP180;7630;50.306;8.566;2022-11-11T07:46:47;99370.00;;;9.40
15062;BMP180;7630;50.306;8.566;2022-11-11T07:50:52;99348.00;;;9.80
15062;BMP180;7630;50.306;8.566;2022-11-11T07:54:54;99372.00;;;10.30
15062;BMP180;7630;50.306;8.566;2022-11-11T07:58:56;99370.00;;;10.60
15062;BMP180;7630;50.306;8.566;2022-11-11T08:02:57;99378.00;;;11.00
15062;BMP180;7630;50.306;8.566;2022-11-11T08:06:59;99375.00;;;11.10
15062;BMP180;7630;50.306;8.566;2022-11-11T08:11:01;99377.00;;;11.20
15062;BMP180;7630;50.306;8.566;2022-11-11T08:15:03;99388.00;;;11.20
15062;BMP180;7630;50.306;8.566;2022-11-11T08:19:06;99374.00;;;11.40
15062;BMP180;7630;50.306;8.566;2022-11-11T08:23:08;99379.00;;;11.30
15062;BMP180;7630;50.306;8.566;2022-11-11T08:27:12;99376.00;;;11.20
15062;BMP180;7630;50.306;8.566;2022-11-11T08:31:13;99369.00;;;11.70
15062;BMP180;7630;50.306;8.566;2022-11-11T08:35:15;99366.00;;;11.90
15062;BMP180;7630;50.306;8.566;2022-11-11T08:39:16;99398.00;;;12.30
15062;BMP180;7630;50.306;8.566;2022-11-11T08:43:18;99369.00;;;12.40
15062;BMP180;7630;50.306;8.566;2022-11-11T08:47:19;99366.00;;;11.50
15062;BMP180;7630;50.306;8.566;2022-11-11T08:51:22;99371.00;;;10.90
15062;BMP180;7630;50.306;8.566;2022-11-11T08:55:23;99379.00;;;10.60
15062;BMP180;7630;50.306;8.566;2022-11-11T08:59:24;99374.00;;;11.10
15062;BMP180;7630;50.306;8.566;2022-11-11T09:03:26;99374.00;;;12.20
15062;BMP180;7630;50.306;8.566;2022-11-11T09:07:28;99372.00;;;13.50
15062;BMP180;7630;50.306;8.566;2022-11-11T09:11:29;99375.00;;;14.10
15062;BMP180;7630;50.306;8.566;2022-11-11T09:15:33;99394.00;;;14.60
15062;BMP180;7630;50.306;8.566;2022-11-11T09:19:34;99382.00;;;14.70
15062;BMP180;7630;50.306;8.566;2022-11-11T09:23:35;99381.00;;;15.10
15062;BMP180;7630;50.306;8.566;2022-11-11T09:27:37;99391.00;;;15.40
15062;BMP180;7630;50.306;8.566;2022-11-11T09:31:38;99392.00;;;15.60
15062;BMP180;7630;50.306;8.566;2022-11-11T09:35:41;99394.00;;;15.60
15062;BMP180;7630;50.306;8.566;2022-11-11T09:39:44;99395.00;;;15.80
15062;BMP180;7630;50.306;8.566;2022-11-11T09:43:54;99397.00;;;15.80
15062;BMP180;7630;50.306;8.566;2022-11-11T09:52:18;99397.00;;;16.20
15062;BMP180;7630;50.306;8.566;2022-11-11T09:56:22;99392.00;;;14.90
15062;BMP180;7630;50.306;8.566;2022-11-11T10:00:28;99390.00;;;15.70
15062;BMP180;7630;50.306;8.566;2022-11-11T10:04:45;99386.00;;;16.40
15062;BMP180;7630;50.306;8.566;2022-11-11T10:08:55;99382.00;;;17.00
15062;BMP180;7630;50.306;8.566;2022-11-11T10:13:10;99394.00;;;17.00
15062;BMP180;7630;50.306;8.566;2022-11-11T10:21:36;99397.00;;;16.90
15062;BMP180;7630;50.306;8.566;2022-11-11T10:25:49;99406.00;;;16.80
15062;BMP180;7630;50.306;8.566;2022-11-11T10:29:46;99403.00;;;14.90
15062;BMP180;7630;50.306;8.566;2022-11-11T10:34:01;99404.00;;;15.70
15062;BMP180;7630;50.306;8.566;2022-11-11T10:42:30;99405.00;;;15.20
15062;BMP180;7630;50.306;8.566;2022-11-11T10:46:41;99408.00;;;15.70
15062;BMP180;7630;50.306;8.566;2022-11-11T10:50:46;99399.00;;;15.90
15062;BMP180;7630;50.306;8.566;2022-11-11T10:59:22;99407.00;;;15.50
15062;BMP180;7630;50.306;8.566;2022-11-11T11:03:25;99403.00;;;15.70
15062;BMP180;7630;50.306;8.566;2022-11-11T11:07:45;99409.00;;;16.30
15062;BMP180;7630;50.306;8.566;2022-11-11T11:16:13;99420.00;;;11.50
15062;BMP180;7630;50.306;8.566;2022-11-11T11:20:15;99416.00;;;10.80
15062;BMP180;7630;50.306;8.566;2022-11-11T11:24:31;99412.00;;;11.70
15062;BMP180;7630;50.306;8.566;2022-11-11T11:28:32;99423.00;;;13.90
15062;BMP180;7630;50.306;8.566;2022-11-11T11:32:34;99403.00;;;15.30
15062;BMP180;7630;50.306;8.566;2022-11-11T11:36:35;99404.00;;;15.60
15062;BMP180;7630;50.306;8.566;2022-11-11T11:44:56;99407.00;;;15.40
15062;BMP180;7630;50.306;8.566;2022-11-11T11:49:19;99401.00;;;16.40
15062;BMP180;7630;50.306;8.566;2022-11-11T12:02:01;99397.00;;;15.40
15062;BMP180;7630;50.306;8.566;2022-11-11T12:06:10;99393.00;;;15.30
15062;BMP180;7630;50.306;8.566;2022-11-11T12:27:26;99408.00;;;15.40
15062;BMP180;7630;50.306;8.566;2022-11-11T12:31:39;99402.00;;;13.50
15062;BMP180;7630;50.306;8.566;2022-11-11T12:58:24;99410.00;;;13.20
15062;BMP180;7630;50.306;8.566;2022-11-11T13:02:57;99401.00;;;14.00
15062;BMP180;7630;50.306;8.566;2022-11-11T13:07:23;99418.00;;;14.60
15062;BMP180;7630;50.306;8.566;2022-11-11T13:11:48;99411.00;;;15.10
15062;BMP180;7630;50.306;8.566;2022-11-11T13:15:50;99257.00;;;15.30
15062;BMP180;7630;50.306;8.566;2022-11-11T13:19:57;99411.00;;;14.20
15062;BMP180;7630;50.306;8.566;2022-11-11T13:23:59;99412.00;;;14.60
15062;BMP180;7630;50.306;8.566;2022-11-11T13:28:13;99415.00;;;14.30
15062;BMP180;7630;50.306;8.566;2022-11-11T13:32:17;99407.00;;;14.40
15062;BMP180;7630;50.306;8.566;2022-11-11T13:36:23;99393.00;;;14.50
15062;BMP180;7630;50.306;8.566;2022-11-11T13:44:46;99402.00;;;14.80
15062;BMP180;7630;50.306;8.566;2022-11-11T13:48:46;99401.00;;;14.50
15062;BMP180;7630;50.306;8.566;2022-11-11T13:52:55;99307.00;;;15.00
15062;BMP180;7630;50.306;8.566;2022-11-11T13:57:06;99393.00;;;15.10
15062;BMP180;7630;50.306;8.566;2022-11-11T14:01:07;99396.00;;;14.50
15062;BMP180;7630;50.306;8.566;2022-11-11T14:18:02;99384.00;;;15.30
15062;BMP180;7630;50.306;8.566;2022-11-11T14:22:28;99387.00;;;15.30
15062;BMP180;7630;50.306;8.566;2022-11-11T14:26:30;99385.00;;;15.20
15062;BMP180;7630;50.306;8.566;2022-11-11T14:30:38;99390.00;;;15.50
15062;BMP180;7630;50.306;8.566;2022-11-11T14:34:59;99394.00;;;14.70
15062;BMP180;7630;50.306;8.566;2022-11-11T14:39:26;99381.00;;;14.70
15062;BMP180;7630;50.306;8.566;2022-11-11T14:43:33;99383.00;;;14.30
15062;BMP180;7630;50.306;8.566;2022-11-11T14:47:41;99382.00;;;14.70
15062;BMP180;7630;50.306;8.566;2022-11-11T14:51:45;99381.00;;;14.70
15062;BMP180;7630;50.306;8.566;2022-11-11T14:55:51;99376.00;;;14.40
15062;BMP180;7630;50.306;8.566;2022-11-11T14:59:55;99385.00;;;14.60
15062;BMP180;7630;50.306;8.566;2022-11-11T15:04:00;99383.00;;;14.50
15062;BMP180;7630;50.306;8.566;2022-11-11T15:08:13;99376.00;;;14.20
15062;BMP180;7630;50.306;8.566;2022-11-11T15:12:25;99373.00;;;14.30
15062;BMP180;7630;50.306;8.566;2022-11-11T15:21:04;99367.00;;;13.90
15062;BMP180;7630;50.306;8.566;2022-11-11T15:37:51;99359.00;;;13.60
15062;BMP180;7630;50.306;8.566;2022-11-11T15:41:53;99353.00;;;12.90
15062;BMP180;7630;50.306;8.566;2022-11-11T15:45:58;99360.00;;;11.60
15062;BMP180;7630;50.306;8.566;2022-11-11T15:50:00;99364.00;;;11.90
15062;BMP180;7630;50.306;8.566;2022-11-11T15:54:20;99369.00;;;12.30
15062;BMP180;7630;50.306;8.566;2022-11-11T15:58:30;99368.00;;;11.80
15062;BMP180;7630;50.306;8.566;2022-11-11T16:02:33;99364.00;;;11.20
15062;BMP180;7630;50.306;8.566;2022-11-11T16:06:35;99368.00;;;11.40
15062;BMP180;7630;50.306;8.566;2022-11-11T16:10:38;99377.00;;;12.30
15062;BMP180;7630;50.306;8.566;2022-11-11T16:14:42;99374.00;;;11.90
15062;BMP180;7630;50.306;8.566;2022-11-11T16:18:51;99377.00;;;12.40
15062;BMP180;7630;50.306;8.566;2022-11-11T16:22:55;99379.00;;;12.00
15062;BMP180;7630;50.306;8.566;2022-11-11T16:27:00;99371.00;;;12.00
15062;BMP180;7630;50.306;8.566;2022-11-11T16:35:38;99378.00;;;11.30
15062;BMP180;7630;50.306;8.566;2022-11-11T16:39:40;99375.00;;;11.40
15062;BMP180;7630;50.306;8.566;2022-11-11T16:43:41;99376.00;;;11.60
15062;BMP180;7630;50.306;8.566;2022-11-11T16:47:45;99380.00;;;11.70
15062;BMP180;7630;50.306;8.566;2022-11-11T16:51:47;99374.00;;;11.60
15062;BMP180;7630;50.306;8.566;2022-11-11T16:55:49;99381.00;;;11.20
15062;BMP180;7630;50.306;8.566;2022-11-11T16:59:53;99370.00;;;11.30
15062;BMP180;7630;50.306;8.566;2022-11-11T17:03:57;99373.00;;;11.40
15062;BMP180;7630;50.306;8.566;2022-11-11T17:07:58;99370.00;;;11.20
15062;BMP180;7630;50.306;8.566;2022-11-11T17:11:59;99380.00;;;10.40
15062;BMP180;7630;50.306;8.566;2022-11-11T17:16:03;99388.00;;;9.50
15062;BMP180;7630;50.306;8.566;2022-11-11T17:20:15;99374.00;;;9.80
15062;BMP180;7630;50.306;8.566;2022-11-11T17:24:17;99379.00;;;10.80
15062;BMP180;7630;50.306;8.566;2022-11-11T17:28:19;99373.00;;;10.30
15062;BMP180;7630;50.306;8.566;2022-11-11T17:32:20;99373.00;;;10.30
15062;BMP180;7630;50.306;8.566;2022-11-11T17:36:21;99372.00;;;10.60
15062;BMP180;7630;50.306;8.566;2022-11-11T17:40:23;99376.00;;;10.60
15062;BMP180;7630;50.306;8.566;2022-11-11T17:44:24;99376.00;;;10.40
15062;BMP180;7630;50.306;8.566;2022-11-11T17:48:25;99382.00;;;9.90
15062;BMP180;7630;50.306;8.566;2022-11-11T17:52:27;99378.00;;;10.00
15062;BMP180;7630;50.306;8.566;2022-11-11T17:56:29;99368.00;;;9.90
15062;BMP180;7630;50.306;8.566;2022-11-11T18:00:30;99377.00;;;9.90
15062;BMP180;7630;50.306;8.566;2022-11-11T18:04:31;99375.00;;;9.40
15062;BMP180;7630;50.306;8.566;2022-11-11T18:08:33;99381.00;;;9.40
15062;BMP180;7630;50.306;8.566;2022-11-11T18:12:34;99376.00;;;8.40
15062;BMP180;7630;50.306;8.566;2022-11-11T18:16:36;99368.00;;;8.10
15062;BMP180;7630;50.306;8.566;2022-11-11T18:20:37;99378.00;;;7.90
15062;BMP180;7630;50.306;8.566;2022-11-11T18:24:38;99385.00;;;7.50
15062;BMP180;7630;50.306;8.566;2022-11-11T18:28:40;99386.00;;;7.10
15062;BMP180;7630;50.306;8.566;2022-11-11T18:32:41;99391.00;;;8.30
15062;BMP180;7630;50.306;8.566;2022-11-11T18:36:44;99381.00;;;9.20
15062;BMP180;7630;50.306;8.566;2022-11-11T18:40:48;99375.00;;;9.20
15062;BMP180;7630;50.306;8.566;2022-11-11T18:44:50;99385.00;;;9.50
15062;BMP180;7630;50.306;8.566;2022-11-11T18:49:00;99371.00;;;9.20
15062;BMP180;7630;50.306;8.566;2022-11-11T18:52:58;99379.00;;;9.30
15062;BMP180;7630;50.306;8.566;2022-11-11T18:57:00;99376.00;;;9.30
15062;BMP180;7630;50.306;8.566;2022-11-11T19:01:10;99372.00;;;9.10
15062;BMP180;7630;50.306;8.566;2022-11-11T19:05:13;99366.00;;;9.30
15062;BMP180;7630;50.306;8.566;2022-11-11T19:09:14;99380.00;;;9.10
15062;BMP180;7630;50.306;8.566;2022-11-11T19:13:15;99380.00;;;9.10
15062;BMP180;7630;50.306;8.566;2022-11-11T19:17:16;99388.00;;;9.10
15062;BMP180;7630;50.306;8.566;2022-11-11T19:21:24;99385.00;;;9.10
15062;BMP180;7630;50.306;8.566;2022-11-11T19:25:25;99394.00;;;9.10
15062;BMP180;7630;50.306;8.566;2022-11-11T19:29:27;99391.00;;;9.20
15062;BMP180;7630;50.306;8.566;2022-11-11T19:33:28;99416.00;;;8.80
15062;BMP180;7630;50.306;8.566;2022-11-11T19:37:31;99399.00;;;8.40
15062;BMP180;7630;50.306;8.566;2022-11-11T19:41:33;99401.00;;;8.90
15062;BMP180;7630;50.306;8.566;2022-11-11T19:45:34;99280.00;;;8.10
15062;BMP180;7630;50.306;8.566;2022-11-11T19:49:37;99406.00;;;8.30
15062;BMP180;7630;50.306;8.566;2022-11-11T19:53:38;99399.00;;;8.50
15062;BMP180;7630;50.306;8.566;2022-11-11T19:57:40;99405.00;;;8.30
15062;BMP180;7630;50.306;8.566;2022-11-11T20:01:41;99413.00;;;8.20
15062;BMP180;7630;50.306;8.566;2022-11-11T20:05:43;99411.00;;;8.40
15062;BMP180;7630;50.306;8.566;2022-11-11T20:09:44;99416.00;;;7.60
15062;BMP180;7630;50.306;8.566;2022-11-11T20:13:46;99418.00;;;7.90
15062;BMP180;7630;50.306;8.566;2022-11-11T20:17:47;99408.00;;;7.50
15062;BMP180;7630;50.306;8.566;2022-11-11T20:21:49;99414.00;;;7.70
15062;BMP180;7630;50.306;8.566;2022-11-11T20:25:51;99424.00;;;7.60
15062;BMP180;7630;50.306;8.566;2022-11-11T20:29:53;99425.00;;;7.80
15062;BMP180;7630;50.306;8.566;2022-11-11T20:33:55;99421.00;;;7.40
15062;BMP180;7630;50.306;8.566;2022-11-11T20:37:57;99425.00;;;6.50
15062;BMP180;7630;50.306;8.566;2022-11-11T20:41:58;99431.00;;;7.00
15062;BMP180;7630;50.306;8.566;2022-11-11T20:46:13;99433.00;;;7.50
15062;BMP180;7630;50.306;8.566;2022-11-11T20:50:10;99444.00;;;8.00
15062;BMP180;7630;50.306;8.566;2022-11-11T20:54:11;99431.00;;;8.00
15062;BMP180;7630;50.306;8.566;2022-11-11T20:58:12;99433.00;;;8.30
15062;BMP180;7630;50.306;8.566;2022-11-11T21:02:14;99431.00;;;8.30
15062;BMP180;7630;50.306;8.566;2022-11-11T21:06:17;99441.00;;;8.30
15062;BMP180;7630;50.306;8.566;2022-11-11T21:10:18;99433.00;;;8.10
15062;BMP180;7630;50.306;8.566;2022-11-11T21:14:19;99434.00;;;7.70
15062;BMP180;7630;50.306;8.566;2022-11-11T21:18:21;99433.00;;;8.10
15062;BMP180;7630;50.306;8.566;2022-11-11T21:22:22;99421.00;;;7.80
15062;BMP180;7630;50.306;8.566;2022-11-11T21:26:24;99427.00;;;7.30
15062;BMP180;7630;50.306;8.566;2022-11-11T21:30:26;99422.00;;;6.40
15062;BMP180;7630;50.306;8.566;2022-11-11T21:34:27;99427.00;;;6.70
15062;BMP180;7630;50.306;8.566;2022-11-11T21:38:28;99431.00;;;7.30
15062;BMP180;7630;50.306;8.566;2022-11-11T21:42:30;99431.00;;;7.80
15062;BMP180;7630;50.306;8.566;2022-11-11T21:46:32;99431.00;;;8.00
15062;BMP180;7630;50.306;8.566;2022-11-11T21:50:34;99431.00;;;7.90
15062;BMP180;7630;50.306;8.566;2022-11-11T21:54:35;99421.00;;;8.00
15062;BMP180;7630;50.306;8.566;2022-11-11T21:58:37;99433.00;;;7.90
15062;BMP180;7630;50.306;8.566;2022-11-11T22:02:38;99434.00;;;7.80
15062;BMP180;7630;50.306;8.566;2022-11-11T22:06:40;99431.00;;;7.60
15062;BMP180;7630;50.306;8.566;2022-11-11T22:10:41;99435.00;;;7.50
15062;BMP180;7630;50.306;8.566;2022-11-11T22:14:42;99425.00;;;7.20
15062;BMP180;7630;50.306;8.566;2022-11-11T22:18:44;99424.00;;;7.30
15062;BMP180;7630;50.306;8.566;2022-11-11T22:22:45;99429.00;;;7.20
15062;BMP180;7630;50.306;8.566;2022-11-11T22:26:46;99435.00;;;7.30
15062;BMP180;7630;50.306;8.566;2022-11-11T22:30:49;99427.00;;;7.40
15062;BMP180;7630;50.306;8.566;2022-11-11T22:34:51;99432.00;;;7.70
15062;BMP180;7630;50.306;8.566;2022-11-11T22:38:52;99418.00;;;8.00
15062;BMP180;7630;50.306;8.566;2022-11-11T22:42:55;99427.00;;;8.20
15062;BMP180;7630;50.306;8.566;2022-11-11T22:46:57;99440.00;;;8.10
15062;BMP180;7630;50.306;8.566;2022-11-11T22:51:11;99421.00;;;6.00
15062;BMP180;7630;50.306;8.566;2022-11-11T22:55:09;99422.00;;;6.30
15062;BMP180;7630;50.306;8.566;2022-11-11T22:59:10;99423.00;;;7.10
15062;BMP180;7630;50.306;8.566;2022-11-11T23:03:12;99425.00;;;7.80
15062;BMP180;7630;50.306;8.566;2022-11-11T23:07:13;99417.00;;;7.80
15062;BMP180;7630;50.306;8.566;2022-11-11T23:11:16;99416.00;;;6.80
15062;BMP180;7630;50.306;8.566;2022-11-11T23:15:18;99412.00;;;5.90
15062;BMP180;7630;50.306;8.566;2022-11-11T23:19:19;99419.00;;;5.40
15062;BMP180;7630;50.306;8.566;2022-11-11T23:23:23;99413.00;;;6.00
15062;BMP180;7630;50.306;8.566;2022-11-11T23:27:24;99403.00;;;6.20
15062;BMP180;7630;50.306;8.566;2022-11-11T23:31:28;99410.00;;;6.00
15062;BMP180;7630;50.306;8.566;2022-11-11T23:35:29;99416.00;;;6.60
15062;BMP180;7630;50.306;8.566;2022-11-11T23:39:30;99413.00;;;6.40
15062;BMP180;7630;50.306;8.566;2022-11-11T23:43:32;99421.00;;;7.10
15062;BMP180;7630;50.306;8.566;2022-11-11T23:47:33;99414.00;;;7.50
15062;BMP180;7630;50.306;8.566;2022-11-11T23:51:35;99416.00;;;7.50
15062;BMP180;7630;50.306;8.566;2022-11-11T23:55:36;99417.00;;;7.50
15062;BMP180;7630;50.306;8.566;2022-11-11T23:59:37;99416.00;;;7.40
